sensor_id;sensor_type;location;lat;lon;timestamp;P1;durP1;ratioP1;P2;durP2;ratioP2
13979;SDS011;73871;49.900;8.594;2024-03-02T00:00:14;8.67;;;6.87;;
13979;SDS011;73871;49.900;8.594;2024-03-02T00:05:11;7.53;;;6.57;;
13979;SDS011;73871;49.900;8.594;2024-03-02T00:07:41;8.30;;;6.83;;
13979;SDS011;73871;49.900;8.594;2024-03-02T00:10:09;8.10;;;7.30;;
13979;SDS011;73871;49.900;8.594;2024-03-02T00:12:37;7.27;;;6.57;;
13979;SDS011;73871;49.900;8.594;2024-03-02T00:15:05;8.40;;;7.00;;
13979;SDS011;73871;49.900;8.594;2024-03-02T00:17:54;9.27;;;6.73;;
13979;SDS011;73871;49.900;8.594;2024-03-02T00:20:22;7.60;;;6.73;;
13979;SDS011;73871;49.900;8.594;2024-03-02T00:22:49;8.93;;;7.00;;
13979;SDS011;73871;49.900;8.594;2024-03-02T00:25:17;8.83;;;7.43;;
13979;SDS011;73871;49.900;8.594;2024-03-02T00:27:47;12.20;;;7.53;;
13979;SDS011;73871;49.900;8.594;2024-03-02T00:30:35;10.33;;;8.10;;
13979;SDS011;73871;49.900;8.594;2024-03-02T00:33:26;9.57;;;8.07;;
13979;SDS011;73871;49.900;8.594;2024-03-02T00:35:54;9.97;;;8.47;;
13979;SDS011;73871;49.900;8.594;2024-03-02T00:38:22;12.33;;;8.67;;
13979;SDS011;73871;49.900;8.594;2024-03-02T00:40:50;11.90;;;8.40;;
13979;SDS011;73871;49.900;8.594;2024-03-02T00:46:18;10.23;;;8.00;;
13979;SDS011;73871;49.900;8.594;2024-03-02T00:48:48;10.27;;;8.53;;
13979;SDS011;73871;49.900;8.594;2024-03-02T00:51:23;9.97;;;8.13;;
13979;SDS011;73871;49.900;8.594;2024-03-02T00:53:51;10.43;;;8.60;;
13979;SDS011;73871;49.900;8.594;2024-03-02T00:56:21;10.43;;;7.40;;
13979;SDS011;73871;49.900;8.594;2024-03-02T00:58:49;9.53;;;7.70;;
13979;SDS011;73871;49.900;8.594;2024-03-02T01:01:16;9.70;;;8.03;;
13979;SDS011;73871;49.900;8.594;2024-03-02T01:03:43;8.77;;;7.60;;
13979;SDS011;73871;49.900;8.594;2024-03-02T01:06:10;8.53;;;7.63;;
13979;SDS011;73871;49.900;8.594;2024-03-02T01:08:38;10.67;;;7.90;;
13979;SDS011;73871;49.900;8.594;2024-03-02T01:11:05;9.20;;;8.20;;
13979;SDS011;73871;49.900;8.594;2024-03-02T01:13:32;8.90;;;8.00;;
13979;SDS011;73871;49.900;8.594;2024-03-02T01:15:58;9.70;;;8.30;;
13979;SDS011;73871;49.900;8.594;2024-03-02T01:18:26;9.77;;;8.07;;
13979;SDS011;73871;49.900;8.594;2024-03-02T01:20:53;10.10;;;8.50;;
13979;SDS011;73871;49.900;8.594;2024-03-02T01:23:22;10.50;;;8.10;;
13979;SDS011;73871;49.900;8.594;2024-03-02T01:25:50;10.23;;;8.80;;
13979;SDS011;73871;49.900;8.594;2024-03-02T01:28:18;11.23;;;8.40;;
13979;SDS011;73871;49.900;8.594;2024-03-02T01:30:45;9.27;;;7.83;;
13979;SDS011;73871;49.900;8.594;2024-03-02T01:33:12;12.00;;;8.23;;
13979;SDS011;73871;49.900;8.594;2024-03-02T01:35:39;11.93;;;9.07;;
13979;SDS011;73871;49.900;8.594;2024-03-02T01:38:06;10.57;;;8.70;;
13979;SDS011;73871;49.900;8.594;2024-03-02T01:40:36;10.23;;;9.13;;
13979;SDS011;73871;49.900;8.594;2024-03-02T01:43:04;10.03;;;8.60;;
13979;SDS011;73871;49.900;8.594;2024-03-02T01:45:32;10.60;;;8.60;;
13979;SDS011;73871;49.900;8.594;2024-03-02T01:47:59;10.70;;;8.20;;
13979;SDS011;73871;49.900;8.594;2024-03-02T01:50:29;10.17;;;8.43;;
13979;SDS011;73871;49.900;8.594;2024-03-02T01:52:58;9.63;;;8.17;;
13979;SDS011;73871;49.900;8.594;2024-03-02T01:55:26;10.63;;;8.73;;
13979;SDS011;73871;49.900;8.594;2024-03-02T01:57:55;12.30;;;9.33;;
13979;SDS011;73871;49.900;8.594;2024-03-02T02:00:22;12.27;;;9.73;;
13979;SDS011;73871;49.900;8.594;2024-03-02T02:02:51;14.33;;;10.13;;
13979;SDS011;73871;49.900;8.594;2024-03-02T02:05:18;13.33;;;10.27;;
13979;SDS011;73871;49.900;8.594;2024-03-02T02:07:45;11.93;;;10.13;;
13979;SDS011;73871;49.900;8.594;2024-03-02T02:10:12;11.30;;;9.37;;
13979;SDS011;73871;49.900;8.594;2024-03-02T02:12:39;13.43;;;9.77;;
13979;SDS011;73871;49.900;8.594;2024-03-02T02:15:24;11.93;;;10.20;;
13979;SDS011;73871;49.900;8.594;2024-03-02T02:17:55;12.37;;;9.83;;
13979;SDS011;73871;49.900;8.594;2024-03-02T02:20:23;13.27;;;9.77;;
13979;SDS011;73871;49.900;8.594;2024-03-02T02:22:57;12.50;;;9.07;;
13979;SDS011;73871;49.900;8.594;2024-03-02T02:25:25;12.73;;;9.33;;
13979;SDS011;73871;49.900;8.594;2024-03-02T02:27:53;13.60;;;9.30;;
13979;SDS011;73871;49.900;8.594;2024-03-02T02:30:24;11.17;;;8.27;;
13979;SDS011;73871;49.900;8.594;2024-03-02T02:32:52;11.20;;;8.90;;
13979;SDS011;73871;49.900;8.594;2024-03-02T02:35:19;9.47;;;8.53;;
13979;SDS011;73871;49.900;8.594;2024-03-02T02:37:46;13.47;;;9.53;;
13979;SDS011;73871;49.900;8.594;2024-03-02T02:40:14;12.63;;;10.00;;
13979;SDS011;73871;49.900;8.594;2024-03-02T02:42:42;14.73;;;10.80;;
13979;SDS011;73871;49.900;8.594;2024-03-02T02:45:09;13.37;;;10.60;;
13979;SDS011;73871;49.900;8.594;2024-03-02T02:47:37;13.23;;;9.83;;
13979;SDS011;73871;49.900;8.594;2024-03-02T02:50:04;11.70;;;9.43;;
13979;SDS011;73871;49.900;8.594;2024-03-02T02:52:37;14.17;;;10.00;;
13979;SDS011;73871;49.900;8.594;2024-03-02T02:55:06;11.53;;;9.50;;
13979;SDS011;73871;49.900;8.594;2024-03-02T02:57:34;12.80;;;9.80;;
13979;SDS011;73871;49.900;8.594;2024-03-02T03:00:08;12.60;;;9.17;;
13979;SDS011;73871;49.900;8.594;2024-03-02T03:02:37;12.67;;;10.20;;
13979;SDS011;73871;49.900;8.594;2024-03-02T03:05:08;12.83;;;10.50;;
13979;SDS011;73871;49.900;8.594;2024-03-02T03:07:36;11.77;;;9.83;;
13979;SDS011;73871;49.900;8.594;2024-03-02T03:10:05;11.93;;;9.37;;
13979;SDS011;73871;49.900;8.594;2024-03-02T03:12:34;12.63;;;9.70;;
13979;SDS011;73871;49.900;8.594;2024-03-02T03:15:01;11.50;;;9.40;;
13979;SDS011;73871;49.900;8.594;2024-03-02T03:17:29;12.67;;;9.50;;
13979;SDS011;73871;49.900;8.594;2024-03-02T03:19:55;11.70;;;9.17;;
13979;SDS011;73871;49.900;8.594;2024-03-02T03:22:22;13.67;;;9.93;;
13979;SDS011;73871;49.900;8.594;2024-03-02T03:24:49;11.80;;;9.17;;
13979;SDS011;73871;49.900;8.594;2024-03-02T03:27:16;11.33;;;9.37;;
13979;SDS011;73871;49.900;8.594;2024-03-02T03:29:42;11.23;;;9.37;;
13979;SDS011;73871;49.900;8.594;2024-03-02T03:32:09;10.67;;;9.03;;
13979;SDS011;73871;49.900;8.594;2024-03-02T03:34:36;12.83;;;9.33;;
13979;SDS011;73871;49.900;8.594;2024-03-02T03:37:03;11.27;;;8.97;;
13979;SDS011;73871;49.900;8.594;2024-03-02T03:39:30;12.03;;;9.87;;
13979;SDS011;73871;49.900;8.594;2024-03-02T03:41:56;12.93;;;10.07;;
13979;SDS011;73871;49.900;8.594;2024-03-02T03:44:23;13.10;;;9.67;;
13979;SDS011;73871;49.900;8.594;2024-03-02T03:46:50;11.97;;;9.40;;
13979;SDS011;73871;49.900;8.594;2024-03-02T03:49:17;12.70;;;9.37;;
13979;SDS011;73871;49.900;8.594;2024-03-02T03:51:44;12.83;;;9.80;;
13979;SDS011;73871;49.900;8.594;2024-03-02T03:54:10;13.73;;;10.10;;
13979;SDS011;73871;49.900;8.594;2024-03-02T03:56:37;11.90;;;9.67;;
13979;SDS011;73871;49.900;8.594;2024-03-02T03:59:04;11.23;;;9.27;;
13979;SDS011;73871;49.900;8.594;2024-03-02T04:01:31;12.23;;;8.57;;
13979;SDS011;73871;49.900;8.594;2024-03-02T04:03:58;13.03;;;10.03;;
13979;SDS011;73871;49.900;8.594;2024-03-02T04:06:25;14.13;;;9.63;;
13979;SDS011;73871;49.900;8.594;2024-03-02T04:08:51;13.40;;;9.43;;
13979;SDS011;73871;49.900;8.594;2024-03-02T04:11:18;12.20;;;9.33;;
13979;SDS011;73871;49.900;8.594;2024-03-02T04:13:45;12.10;;;9.20;;
13979;SDS011;73871;49.900;8.594;2024-03-02T04:16:12;12.50;;;9.70;;
13979;SDS011;73871;49.900;8.594;2024-03-02T04:18:38;11.20;;;8.80;;
13979;SDS011;73871;49.900;8.594;2024-03-02T04:21:06;13.47;;;10.00;;
13979;SDS011;73871;49.900;8.594;2024-03-02T04:23:32;11.60;;;8.90;;
13979;SDS011;73871;49.900;8.594;2024-03-02T04:25:59;11.03;;;9.00;;
13979;SDS011;73871;49.900;8.594;2024-03-02T04:28:26;10.87;;;9.20;;
13979;SDS011;73871;49.900;8.594;2024-03-02T04:30:53;13.23;;;9.60;;
13979;SDS011;73871;49.900;8.594;2024-03-02T04:33:20;10.73;;;9.63;;
13979;SDS011;73871;49.900;8.594;2024-03-02T04:35:47;16.27;;;10.97;;
13979;SDS011;73871;49.900;8.594;2024-03-02T04:38:13;12.23;;;9.77;;
13979;SDS011;73871;49.900;8.594;2024-03-02T04:40:40;13.00;;;10.03;;
13979;SDS011;73871;49.900;8.594;2024-03-02T04:43:07;13.03;;;9.57;;
13979;SDS011;73871;49.900;8.594;2024-03-02T04:45:37;12.23;;;9.40;;
13979;SDS011;73871;49.900;8.594;2024-03-02T04:48:04;12.87;;;10.10;;
13979;SDS011;73871;49.900;8.594;2024-03-02T04:50:31;12.40;;;10.00;;
13979;SDS011;73871;49.900;8.594;2024-03-02T04:52:58;13.40;;;10.63;;
13979;SDS011;73871;49.900;8.594;2024-03-02T04:55:25;15.13;;;10.10;;
13979;SDS011;73871;49.900;8.594;2024-03-02T04:57:55;13.20;;;9.87;;
13979;SDS011;73871;49.900;8.594;2024-03-02T05:00:22;12.50;;;10.60;;
13979;SDS011;73871;49.900;8.594;2024-03-02T05:02:49;14.43;;;11.17;;
13979;SDS011;73871;49.900;8.594;2024-03-02T05:05:17;16.63;;;11.23;;
13979;SDS011;73871;49.900;8.594;2024-03-02T05:07:44;15.57;;;10.67;;
13979;SDS011;73871;49.900;8.594;2024-03-02T05:10:11;16.23;;;12.13;;
13979;SDS011;73871;49.900;8.594;2024-03-02T05:12:38;14.17;;;11.23;;
13979;SDS011;73871;49.900;8.594;2024-03-02T05:15:22;15.30;;;10.73;;
13979;SDS011;73871;49.900;8.594;2024-03-02T05:17:49;14.10;;;11.43;;
13979;SDS011;73871;49.900;8.594;2024-03-02T05:20:16;15.67;;;11.70;;
13979;SDS011;73871;49.900;8.594;2024-03-02T05:22:43;17.43;;;12.17;;
13979;SDS011;73871;49.900;8.594;2024-03-02T05:25:10;20.97;;;14.07;;
13979;SDS011;73871;49.900;8.594;2024-03-02T05:27:37;17.17;;;12.83;;
13979;SDS011;73871;49.900;8.594;2024-03-02T05:30:04;16.33;;;12.07;;
13979;SDS011;73871;49.900;8.594;2024-03-02T05:32:35;16.87;;;13.07;;
13979;SDS011;73871;49.900;8.594;2024-03-02T05:35:02;15.57;;;11.80;;
13979;SDS011;73871;49.900;8.594;2024-03-02T05:37:29;19.77;;;13.10;;
13979;SDS011;73871;49.900;8.594;2024-03-02T05:39:56;16.27;;;13.10;;
13979;SDS011;73871;49.900;8.594;2024-03-02T05:42:23;16.57;;;12.93;;
13979;SDS011;73871;49.900;8.594;2024-03-02T05:44:49;17.77;;;12.67;;
13979;SDS011;73871;49.900;8.594;2024-03-02T05:47:17;16.37;;;12.13;;
13979;SDS011;73871;49.900;8.594;2024-03-02T05:49:43;17.07;;;12.67;;
13979;SDS011;73871;49.900;8.594;2024-03-02T05:52:10;15.87;;;12.47;;
13979;SDS011;73871;49.900;8.594;2024-03-02T05:54:38;17.77;;;12.53;;
13979;SDS011;73871;49.900;8.594;2024-03-02T05:57:05;18.20;;;12.00;;
13979;SDS011;73871;49.900;8.594;2024-03-02T06:00:00;14.73;;;11.23;;
13979;SDS011;73871;49.900;8.594;2024-03-02T06:02:26;14.80;;;11.93;;
13979;SDS011;73871;49.900;8.594;2024-03-02T06:04:56;14.47;;;11.17;;
13979;SDS011;73871;49.900;8.594;2024-03-02T06:07:23;16.47;;;11.67;;
13979;SDS011;73871;49.900;8.594;2024-03-02T06:09:49;14.40;;;11.50;;
13979;SDS011;73871;49.900;8.594;2024-03-02T06:12:18;15.00;;;12.07;;
13979;SDS011;73871;49.900;8.594;2024-03-02T06:14:45;14.83;;;11.43;;
13979;SDS011;73871;49.900;8.594;2024-03-02T06:17:12;15.83;;;12.90;;
13979;SDS011;73871;49.900;8.594;2024-03-02T06:19:39;15.97;;;12.27;;
13979;SDS011;73871;49.900;8.594;2024-03-02T06:22:05;14.90;;;11.73;;
13979;SDS011;73871;49.900;8.594;2024-03-02T06:24:32;14.67;;;11.60;;
13979;SDS011;73871;49.900;8.594;2024-03-02T06:26:59;15.17;;;12.03;;
13979;SDS011;73871;49.900;8.594;2024-03-02T06:29:26;14.60;;;11.43;;
13979;SDS011;73871;49.900;8.594;2024-03-02T06:31:52;15.03;;;11.60;;
13979;SDS011;73871;49.900;8.594;2024-03-02T06:34:20;15.73;;;12.07;;
13979;SDS011;73871;49.900;8.594;2024-03-02T06:36:47;17.30;;;13.40;;
13979;SDS011;73871;49.900;8.594;2024-03-02T06:39:14;16.33;;;12.33;;
13979;SDS011;73871;49.900;8.594;2024-03-02T06:41:41;15.97;;;12.30;;
13979;SDS011;73871;49.900;8.594;2024-03-02T06:44:08;17.53;;;12.60;;
13979;SDS011;73871;49.900;8.594;2024-03-02T06:46:35;16.17;;;12.70;;
13979;SDS011;73871;49.900;8.594;2024-03-02T06:49:02;17.57;;;13.23;;
13979;SDS011;73871;49.900;8.594;2024-03-02T06:51:30;15.47;;;11.20;;
13979;SDS011;73871;49.900;8.594;2024-03-02T06:53:57;16.63;;;11.83;;
13979;SDS011;73871;49.900;8.594;2024-03-02T06:56:24;16.37;;;13.33;;
13979;SDS011;73871;49.900;8.594;2024-03-02T06:58:50;18.33;;;12.67;;
13979;SDS011;73871;49.900;8.594;2024-03-02T07:01:18;18.43;;;13.30;;
13979;SDS011;73871;49.900;8.594;2024-03-02T07:03:50;16.30;;;12.60;;
13979;SDS011;73871;49.900;8.594;2024-03-02T07:06:17;14.97;;;12.10;;
13979;SDS011;73871;49.900;8.594;2024-03-02T07:08:43;16.80;;;13.20;;
13979;SDS011;73871;49.900;8.594;2024-03-02T07:11:10;15.70;;;12.80;;
13979;SDS011;73871;49.900;8.594;2024-03-02T07:13:37;17.83;;;13.10;;
13979;SDS011;73871;49.900;8.594;2024-03-02T07:16:04;18.63;;;13.80;;
13979;SDS011;73871;49.900;8.594;2024-03-02T07:18:49;18.10;;;14.07;;
13979;SDS011;73871;49.900;8.594;2024-03-02T07:21:18;18.63;;;14.33;;
13979;SDS011;73871;49.900;8.594;2024-03-02T07:23:45;16.97;;;13.23;;
13979;SDS011;73871;49.900;8.594;2024-03-02T07:26:12;18.37;;;14.10;;
13979;SDS011;73871;49.900;8.594;2024-03-02T07:28:42;16.97;;;13.60;;
13979;SDS011;73871;49.900;8.594;2024-03-02T07:31:10;19.20;;;13.90;;
13979;SDS011;73871;49.900;8.594;2024-03-02T07:33:36;19.80;;;15.27;;
13979;SDS011;73871;49.900;8.594;2024-03-02T07:36:03;17.83;;;14.03;;
13979;SDS011;73871;49.900;8.594;2024-03-02T07:38:31;17.67;;;13.93;;
13979;SDS011;73871;49.900;8.594;2024-03-02T07:41:00;17.20;;;15.20;;
13979;SDS011;73871;49.900;8.594;2024-03-02T07:43:26;17.10;;;14.03;;
13979;SDS011;73871;49.900;8.594;2024-03-02T07:45:53;16.97;;;12.83;;
13979;SDS011;73871;49.900;8.594;2024-03-02T07:48:20;17.17;;;13.23;;
13979;SDS011;73871;49.900;8.594;2024-03-02T07:50:47;20.07;;;13.03;;
13979;SDS011;73871;49.900;8.594;2024-03-02T07:53:14;17.57;;;12.50;;
13979;SDS011;73871;49.900;8.594;2024-03-02T07:55:41;14.13;;;10.97;;
13979;SDS011;73871;49.900;8.594;2024-03-02T07:58:08;13.13;;;11.40;;
13979;SDS011;73871;49.900;8.594;2024-03-02T08:00:35;15.43;;;12.03;;
13979;SDS011;73871;49.900;8.594;2024-03-02T08:03:01;15.93;;;12.10;;
13979;SDS011;73871;49.900;8.594;2024-03-02T08:05:29;20.03;;;12.30;;
13979;SDS011;73871;49.900;8.594;2024-03-02T08:07:56;14.50;;;11.53;;
13979;SDS011;73871;49.900;8.594;2024-03-02T08:10:23;13.50;;;11.50;;
13979;SDS011;73871;49.900;8.594;2024-03-02T08:12:50;13.67;;;11.33;;
13979;SDS011;73871;49.900;8.594;2024-03-02T08:15:16;14.40;;;11.47;;
13979;SDS011;73871;49.900;8.594;2024-03-02T08:17:43;14.23;;;11.87;;
13979;SDS011;73871;49.900;8.594;2024-03-02T08:20:15;13.90;;;11.60;;
13979;SDS011;73871;49.900;8.594;2024-03-02T08:22:42;15.20;;;12.07;;
13979;SDS011;73871;49.900;8.594;2024-03-02T08:25:09;14.30;;;12.13;;
13979;SDS011;73871;49.900;8.594;2024-03-02T08:27:36;13.20;;;11.50;;
13979;SDS011;73871;49.900;8.594;2024-03-02T08:30:04;14.93;;;12.13;;
13979;SDS011;73871;49.900;8.594;2024-03-02T08:32:33;14.23;;;12.07;;
13979;SDS011;73871;49.900;8.594;2024-03-02T08:35:01;13.73;;;12.30;;
13979;SDS011;73871;49.900;8.594;2024-03-02T08:37:28;15.80;;;11.97;;
13979;SDS011;73871;49.900;8.594;2024-03-02T08:39:54;14.67;;;11.77;;
13979;SDS011;73871;49.900;8.594;2024-03-02T08:42:22;14.17;;;11.53;;
13979;SDS011;73871;49.900;8.594;2024-03-02T08:44:49;13.10;;;11.57;;
13979;SDS011;73871;49.900;8.594;2024-03-02T08:47:16;14.67;;;11.37;;
13979;SDS011;73871;49.900;8.594;2024-03-02T08:49:43;13.33;;;10.97;;
13979;SDS011;73871;49.900;8.594;2024-03-02T08:52:10;12.23;;;10.70;;
13979;SDS011;73871;49.900;8.594;2024-03-02T08:54:36;13.47;;;11.57;;
13979;SDS011;73871;49.900;8.594;2024-03-02T08:57:04;12.07;;;10.87;;
13979;SDS011;73871;49.900;8.594;2024-03-02T08:59:31;12.47;;;10.60;;
13979;SDS011;73871;49.900;8.594;2024-03-02T09:01:58;12.37;;;10.50;;
13979;SDS011;73871;49.900;8.594;2024-03-02T09:04:25;13.00;;;10.50;;
13979;SDS011;73871;49.900;8.594;2024-03-02T09:06:55;12.13;;;10.83;;
13979;SDS011;73871;49.900;8.594;2024-03-02T09:09:22;12.50;;;10.83;;
13979;SDS011;73871;49.900;8.594;2024-03-02T09:11:49;10.80;;;9.70;;
13979;SDS011;73871;49.900;8.594;2024-03-02T09:14:16;11.13;;;9.57;;
13979;SDS011;73871;49.900;8.594;2024-03-02T09:16:42;11.03;;;9.93;;
13979;SDS011;73871;49.900;8.594;2024-03-02T09:19:09;9.67;;;8.70;;
13979;SDS011;73871;49.900;8.594;2024-03-02T09:21:36;13.07;;;10.30;;
13979;SDS011;73871;49.900;8.594;2024-03-02T09:24:04;11.57;;;10.33;;
13979;SDS011;73871;49.900;8.594;2024-03-02T09:26:32;11.33;;;9.77;;
13979;SDS011;73871;49.900;8.594;2024-03-02T09:28:59;10.80;;;9.27;;
13979;SDS011;73871;49.900;8.594;2024-03-02T09:31:26;10.37;;;9.27;;
13979;SDS011;73871;49.900;8.594;2024-03-02T09:33:53;10.27;;;9.33;;
13979;SDS011;73871;49.900;8.594;2024-03-02T09:36:20;11.97;;;9.50;;
13979;SDS011;73871;49.900;8.594;2024-03-02T09:38:48;10.63;;;9.53;;
13979;SDS011;73871;49.900;8.594;2024-03-02T09:41:15;10.37;;;8.77;;
13979;SDS011;73871;49.900;8.594;2024-03-02T09:43:42;9.87;;;8.93;;
13979;SDS011;73871;49.900;8.594;2024-03-02T09:46:10;9.43;;;8.53;;
13979;SDS011;73871;49.900;8.594;2024-03-02T09:48:37;9.03;;;8.23;;
13979;SDS011;73871;49.900;8.594;2024-03-02T09:51:04;10.13;;;9.13;;
13979;SDS011;73871;49.900;8.594;2024-03-02T09:53:31;9.43;;;8.53;;
13979;SDS011;73871;49.900;8.594;2024-03-02T09:55:59;10.33;;;9.17;;
13979;SDS011;73871;49.900;8.594;2024-03-02T09:58:27;10.20;;;9.20;;
13979;SDS011;73871;49.900;8.594;2024-03-02T10:00:54;10.47;;;9.37;;
13979;SDS011;73871;49.900;8.594;2024-03-02T10:03:20;9.60;;;8.60;;
13979;SDS011;73871;49.900;8.594;2024-03-02T10:05:50;9.47;;;8.57;;
13979;SDS011;73871;49.900;8.594;2024-03-02T10:08:18;9.90;;;8.80;;
13979;SDS011;73871;49.900;8.594;2024-03-02T10:10:44;10.93;;;8.97;;
13979;SDS011;73871;49.900;8.594;2024-03-02T10:13:12;9.20;;;8.33;;
13979;SDS011;73871;49.900;8.594;2024-03-02T10:15:40;8.17;;;7.47;;
13979;SDS011;73871;49.900;8.594;2024-03-02T10:18:09;8.27;;;7.40;;
13979;SDS011;73871;49.900;8.594;2024-03-02T10:20:38;8.67;;;7.30;;
13979;SDS011;73871;49.900;8.594;2024-03-02T10:23:12;8.53;;;7.63;;
13979;SDS011;73871;49.900;8.594;2024-03-02T10:25:40;8.57;;;7.23;;
13979;SDS011;73871;49.900;8.594;2024-03-02T10:28:20;10.00;;;9.00;;
13979;SDS011;73871;49.900;8.594;2024-03-02T10:30:47;8.53;;;7.53;;
13979;SDS011;73871;49.900;8.594;2024-03-02T10:33:17;8.60;;;7.20;;
13979;SDS011;73871;49.900;8.594;2024-03-02T10:35:44;8.00;;;7.20;;
13979;SDS011;73871;49.900;8.594;2024-03-02T10:38:11;9.10;;;8.13;;
13979;SDS011;73871;49.900;8.594;2024-03-02T10:40:38;8.23;;;7.43;;
13979;SDS011;73871;49.900;8.594;2024-03-02T10:43:05;7.63;;;6.83;;
13979;SDS011;73871;49.900;8.594;2024-03-02T10:45:34;9.23;;;7.70;;
13979;SDS011;73871;49.900;8.594;2024-03-02T10:48:02;8.87;;;7.97;;
13979;SDS011;73871;49.900;8.594;2024-03-02T10:50:31;8.60;;;7.80;;
13979;SDS011;73871;49.900;8.594;2024-03-02T10:52:59;8.57;;;7.67;;
13979;SDS011;73871;49.900;8.594;2024-03-02T10:55:25;8.20;;;7.33;;
13979;SDS011;73871;49.900;8.594;2024-03-02T10:57:54;8.20;;;7.13;;
13979;SDS011;73871;49.900;8.594;2024-03-02T11:00:24;12.70;;;7.20;;
13979;SDS011;73871;49.900;8.594;2024-03-02T11:02:57;7.73;;;7.00;;
13979;SDS011;73871;49.900;8.594;2024-03-02T11:05:33;8.30;;;7.07;;
13979;SDS011;73871;49.900;8.594;2024-03-02T11:08:13;8.10;;;7.17;;
13979;SDS011;73871;49.900;8.594;2024-03-02T11:10:48;7.77;;;6.63;;
13979;SDS011;73871;49.900;8.594;2024-03-02T11:13:20;8.23;;;7.43;;
13979;SDS011;73871;49.900;8.594;2024-03-02T11:15:51;6.63;;;5.93;;
13979;SDS011;73871;49.900;8.594;2024-03-02T11:18:25;6.80;;;6.20;;
13979;SDS011;73871;49.900;8.594;2024-03-02T11:20:53;6.43;;;5.80;;
13979;SDS011;73871;49.900;8.594;2024-03-02T11:23:20;7.50;;;5.53;;
13979;SDS011;73871;49.900;8.594;2024-03-02T11:26:18;6.83;;;6.10;;
13979;SDS011;73871;49.900;8.594;2024-03-02T11:28:51;7.20;;;5.77;;
13979;SDS011;73871;49.900;8.594;2024-03-02T11:31:18;6.33;;;5.60;;
13979;SDS011;73871;49.900;8.594;2024-03-02T11:33:45;9.53;;;5.97;;
13979;SDS011;73871;49.900;8.594;2024-03-02T11:36:11;6.57;;;5.87;;
13979;SDS011;73871;49.900;8.594;2024-03-02T11:38:38;6.27;;;5.63;;
13979;SDS011;73871;49.900;8.594;2024-03-02T11:41:09;7.80;;;5.60;;
13979;SDS011;73871;49.900;8.594;2024-03-02T11:43:37;6.37;;;5.20;;
13979;SDS011;73871;49.900;8.594;2024-03-02T11:46:08;5.87;;;5.27;;
13979;SDS011;73871;49.900;8.594;2024-03-02T11:48:35;5.40;;;4.90;;
13979;SDS011;73871;49.900;8.594;2024-03-02T11:51:04;5.97;;;4.83;;
13979;SDS011;73871;49.900;8.594;2024-03-02T11:53:31;5.10;;;4.60;;
13979;SDS011;73871;49.900;8.594;2024-03-02T11:56:01;5.47;;;4.87;;
13979;SDS011;73871;49.900;8.594;2024-03-02T11:58:28;6.27;;;4.43;;
13979;SDS011;73871;49.900;8.594;2024-03-02T12:00:56;5.57;;;4.47;;
13979;SDS011;73871;49.900;8.594;2024-03-02T12:03:24;5.07;;;4.07;;
13979;SDS011;73871;49.900;8.594;2024-03-02T12:05:53;5.23;;;4.50;;
13979;SDS011;73871;49.900;8.594;2024-03-02T12:08:21;5.10;;;4.60;;
13979;SDS011;73871;49.900;8.594;2024-03-02T12:10:58;5.17;;;4.30;;
13979;SDS011;73871;49.900;8.594;2024-03-02T12:13:30;4.70;;;3.87;;
13979;SDS011;73871;49.900;8.594;2024-03-02T12:15:58;8.13;;;4.57;;
13979;SDS011;73871;49.900;8.594;2024-03-02T12:18:25;5.73;;;4.23;;
13979;SDS011;73871;49.900;8.594;2024-03-02T12:20:52;4.93;;;3.77;;
13979;SDS011;73871;49.900;8.594;2024-03-02T12:23:24;6.60;;;4.40;;
13979;SDS011;73871;49.900;8.594;2024-03-02T12:25:51;6.03;;;3.90;;
13979;SDS011;73871;49.900;8.594;2024-03-02T12:28:19;5.07;;;3.70;;
13979;SDS011;73871;49.900;8.594;2024-03-02T12:30:46;4.20;;;3.63;;
13979;SDS011;73871;49.900;8.594;2024-03-02T12:33:14;6.07;;;3.43;;
13979;SDS011;73871;49.900;8.594;2024-03-02T12:35:42;3.63;;;3.03;;
13979;SDS011;73871;49.900;8.594;2024-03-02T12:38:09;3.93;;;3.20;;
13979;SDS011;73871;49.900;8.594;2024-03-02T12:40:37;4.43;;;3.30;;
13979;SDS011;73871;49.900;8.594;2024-03-02T12:43:05;4.43;;;3.70;;
13979;SDS011;73871;49.900;8.594;2024-03-02T12:45:33;5.30;;;3.37;;
13979;SDS011;73871;49.900;8.594;2024-03-02T12:48:01;5.37;;;3.27;;
13979;SDS011;73871;49.900;8.594;2024-03-02T12:50:28;3.67;;;3.30;;
13979;SDS011;73871;49.900;8.594;2024-03-02T12:52:57;3.97;;;3.10;;
13979;SDS011;73871;49.900;8.594;2024-03-02T12:55:24;4.33;;;2.97;;
13979;SDS011;73871;49.900;8.594;2024-03-02T12:57:52;3.50;;;2.97;;
13979;SDS011;73871;49.900;8.594;2024-03-02T13:00:20;4.30;;;3.00;;
13979;SDS011;73871;49.900;8.594;2024-03-02T13:02:49;3.43;;;2.70;;
13979;SDS011;73871;49.900;8.594;2024-03-02T13:05:18;3.30;;;3.00;;
13979;SDS011;73871;49.900;8.594;2024-03-02T13:07:47;3.47;;;2.87;;
13979;SDS011;73871;49.900;8.594;2024-03-02T13:10:15;3.37;;;2.97;;
13979;SDS011;73871;49.900;8.594;2024-03-02T13:12:42;3.23;;;2.93;;
13979;SDS011;73871;49.900;8.594;2024-03-02T13:15:09;3.63;;;2.60;;
13979;SDS011;73871;49.900;8.594;2024-03-02T13:17:42;4.20;;;2.90;;
13979;SDS011;73871;49.900;8.594;2024-03-02T13:20:12;3.67;;;2.60;;
13979;SDS011;73871;49.900;8.594;2024-03-02T13:22:41;3.57;;;2.77;;
13979;SDS011;73871;49.900;8.594;2024-03-02T13:25:08;3.27;;;2.83;;
13979;SDS011;73871;49.900;8.594;2024-03-02T13:27:37;3.20;;;2.73;;
13979;SDS011;73871;49.900;8.594;2024-03-02T13:30:05;3.20;;;2.70;;
13979;SDS011;73871;49.900;8.594;2024-03-02T13:32:32;3.07;;;2.60;;
13979;SDS011;73871;49.900;8.594;2024-03-02T13:35:02;2.80;;;2.50;;
13979;SDS011;73871;49.900;8.594;2024-03-02T13:37:30;3.10;;;2.50;;
13979;SDS011;73871;49.900;8.594;2024-03-02T13:39:57;2.60;;;2.40;;
13979;SDS011;73871;49.900;8.594;2024-03-02T13:42:24;3.03;;;2.63;;
13979;SDS011;73871;49.900;8.594;2024-03-02T13:44:51;3.90;;;2.90;;
13979;SDS011;73871;49.900;8.594;2024-03-02T13:47:19;3.87;;;2.70;;
13979;SDS011;73871;49.900;8.594;2024-03-02T13:49:47;3.83;;;2.90;;
13979;SDS011;73871;49.900;8.594;2024-03-02T13:52:15;2.73;;;2.43;;
13979;SDS011;73871;49.900;8.594;2024-03-02T13:54:46;2.90;;;2.60;;
13979;SDS011;73871;49.900;8.594;2024-03-02T13:57:14;3.30;;;2.33;;
13979;SDS011;73871;49.900;8.594;2024-03-02T13:59:42;3.40;;;2.37;;
13979;SDS011;73871;49.900;8.594;2024-03-02T14:02:10;3.30;;;2.57;;
13979;SDS011;73871;49.900;8.594;2024-03-02T14:04:38;2.73;;;2.53;;
13979;SDS011;73871;49.900;8.594;2024-03-02T14:07:06;3.90;;;2.50;;
13979;SDS011;73871;49.900;8.594;2024-03-02T14:09:38;2.90;;;2.60;;
13979;SDS011;73871;49.900;8.594;2024-03-02T14:12:05;3.47;;;2.60;;
13979;SDS011;73871;49.900;8.594;2024-03-02T14:14:33;3.50;;;2.60;;
13979;SDS011;73871;49.900;8.594;2024-03-02T14:17:00;2.87;;;2.63;;
13979;SDS011;73871;49.900;8.594;2024-03-02T14:19:32;3.40;;;2.63;;
13979;SDS011;73871;49.900;8.594;2024-03-02T14:21:59;3.67;;;3.10;;
13979;SDS011;73871;49.900;8.594;2024-03-02T14:24:26;3.63;;;2.20;;
13979;SDS011;73871;49.900;8.594;2024-03-02T14:26:56;3.20;;;2.83;;
13979;SDS011;73871;49.900;8.594;2024-03-02T14:29:45;5.03;;;2.83;;
13979;SDS011;73871;49.900;8.594;2024-03-02T14:32:12;3.17;;;2.20;;
13979;SDS011;73871;49.900;8.594;2024-03-02T14:34:39;2.80;;;2.40;;
13979;SDS011;73871;49.900;8.594;2024-03-02T14:37:06;2.90;;;2.10;;
13979;SDS011;73871;49.900;8.594;2024-03-02T14:39:33;2.50;;;2.00;;
13979;SDS011;73871;49.900;8.594;2024-03-02T14:42:01;2.90;;;2.10;;
13979;SDS011;73871;49.900;8.594;2024-03-02T14:44:28;2.80;;;2.00;;
13979;SDS011;73871;49.900;8.594;2024-03-02T14:46:55;2.27;;;1.90;;